createdAt,value
2019-03-30T00:04:54.166Z,12.00
2019-03-30T00:07:24.071Z,12.40
2019-03-30T00:09:52.372Z,12.30
2019-03-30T00:12:23.024Z,12.20
2019-03-30T00:14:52.016Z,12.40
2019-03-30T00:17:21.078Z,12.30
2019-03-30T00:19:50.018Z,13.30
2019-03-30T00:22:19.062Z,12.40
2019-03-30T00:24:47.614Z,12.60
2019-03-30T00:27:15.842Z,12.60
2019-03-30T00:29:44.905Z,12.50
2019-03-30T00:32:13.455Z,12.50
2019-03-30T00:34:42.798Z,12.40
2019-03-30T00:37:11.369Z,12.20
2019-03-30T00:39:39.870Z,12.40
2019-03-30T00:47:04.822Z,11.90
2019-03-30T00:49:33.108Z,12.10
2019-03-30T00:54:29.691Z,12.10
2019-03-30T00:56:58.907Z,11.70
2019-03-30T01:01:56.360Z,12.10
2019-03-30T01:04:24.987Z,12.20
2019-03-30T01:06:53.938Z,12.10
2019-03-30T01:09:22.423Z,12.10
2019-03-30T01:14:20.468Z,11.90
2019-03-30T01:16:48.856Z,11.60
2019-03-30T01:19:17.765Z,12.00
2019-03-30T01:21:47.111Z,12.10
2019-03-30T01:24:16.363Z,11.60
2019-03-30T01:29:18.184Z,12.00
2019-03-30T01:31:47.283Z,11.70
2019-03-30T01:36:44.122Z,11.90
2019-03-30T01:39:12.612Z,11.60
2019-03-30T01:41:41.211Z,12.50
2019-03-30T01:44:10.186Z,11.70
2019-03-30T01:46:39.203Z,11.40
2019-03-30T01:49:08.252Z,11.40
2019-03-30T02:01:29.460Z,11.60
2019-03-30T02:03:58.665Z,11.50
2019-03-30T02:08:56.154Z,11.60
2019-03-30T02:11:24.337Z,11.70
2019-03-30T02:13:53.359Z,11.40
2019-03-30T02:16:22.433Z,11.40
2019-03-30T02:18:55.007Z,11.40
2019-03-30T02:21:23.993Z,11.60
2019-03-30T02:23:53.422Z,11.60
2019-03-30T02:26:22.864Z,11.40
2019-03-30T02:28:51.791Z,11.40
2019-03-30T02:31:20.149Z,11.20
2019-03-30T02:33:49.469Z,11.40
2019-03-30T02:36:18.598Z,11.50
2019-03-30T02:38:46.582Z,11.20
2019-03-30T02:41:15.116Z,11.30
2019-03-30T02:43:44.184Z,11.10
2019-03-30T02:46:12.592Z,11.40
2019-03-30T02:48:41.187Z,11.00
2019-03-30T02:51:10.189Z,10.70
2019-03-30T02:53:39.452Z,10.40
2019-03-30T02:56:08.859Z,10.90
2019-03-30T02:58:40.286Z,11.00
2019-03-30T03:01:09.438Z,10.90
2019-03-30T03:03:38.812Z,10.80
2019-03-30T03:08:36.708Z,10.50
2019-03-30T03:11:06.107Z,10.30
2019-03-30T03:13:34.825Z,10.30
2019-03-30T03:18:43.743Z,10.80
2019-03-30T03:21:14.177Z,10.50
2019-03-30T03:23:43.264Z,10.20
2019-03-30T03:26:11.747Z,10.00
2019-03-30T03:28:40.216Z,9.80
2019-03-30T03:31:09.147Z,10.10
2019-03-30T03:33:38.081Z,10.00
2019-03-30T03:36:06.694Z,10.10
2019-03-30T03:43:32.262Z,10.40
2019-03-30T03:46:02.499Z,10.50
2019-03-30T03:48:31.327Z,10.50
2019-03-30T03:56:01.220Z,10.50
2019-03-30T03:58:32.844Z,10.80
2019-03-30T04:01:03.319Z,10.30
2019-03-30T04:03:33.208Z,11.30
2019-03-30T04:06:05.072Z,10.30
2019-03-30T04:08:43.971Z,10.50
2019-03-30T04:11:14.727Z,10.30
2019-03-30T04:13:45.385Z,10.30
2019-03-30T04:16:14.557Z,9.40
2019-03-30T04:18:47.655Z,9.80
2019-03-30T04:21:13.760Z,9.70
2019-03-30T04:23:42.005Z,9.40
2019-03-30T04:26:10.953Z,9.30
2019-03-30T04:28:38.821Z,9.30
2019-03-30T04:31:07.015Z,9.60
2019-03-30T04:33:35.736Z,9.60
2019-03-30T04:38:33.033Z,9.20
2019-03-30T04:41:01.631Z,9.70
2019-03-30T04:43:30.644Z,9.30
2019-03-30T04:45:58.909Z,9.40
2019-03-30T04:48:29.532Z,9.30
2019-03-30T04:50:57.741Z,9.50
2019-03-30T04:53:26.768Z,9.90
2019-03-30T04:55:55.696Z,9.50
2019-03-30T04:58:24.164Z,9.80
2019-03-30T05:00:53.051Z,9.70
2019-03-30T05:03:21.395Z,10.20
2019-03-30T05:05:50.004Z,10.40
2019-03-30T05:08:18.904Z,10.10
2019-03-30T05:10:48.312Z,10.30
2019-03-30T05:13:17.760Z,10.20
2019-03-30T05:15:49.298Z,10.10
2019-03-30T05:18:20.996Z,10.20
2019-03-30T05:20:49.208Z,9.80
2019-03-30T05:23:19.666Z,10.30
2019-03-30T05:25:47.828Z,10.30
2019-03-30T05:28:16.122Z,10.00
2019-03-30T05:30:45.094Z,10.10
2019-03-30T05:33:14.402Z,10.10
2019-03-30T05:35:44.013Z,10.40
2019-03-30T05:38:12.999Z,10.30
2019-03-30T05:40:42.295Z,10.10
2019-03-30T05:43:11.039Z,9.90
2019-03-30T05:45:40.114Z,9.90
2019-03-30T05:48:11.658Z,10.40
2019-03-30T05:55:39.294Z,10.50
2019-03-30T05:58:07.567Z,11.60
2019-03-30T06:00:36.684Z,10.80
2019-03-30T06:03:05.294Z,11.40
2019-03-30T06:05:33.489Z,11.30
2019-03-30T06:08:02.472Z,12.50
2019-03-30T06:10:31.244Z,12.20
2019-03-30T06:12:59.926Z,12.60
2019-03-30T06:15:29.022Z,13.20
2019-03-30T06:17:57.671Z,13.40
2019-03-30T06:20:27.006Z,13.60
2019-03-30T06:22:55.932Z,14.50
2019-03-30T06:25:24.777Z,14.40
2019-03-30T06:27:53.485Z,15.00
2019-03-30T06:30:29.445Z,15.10
2019-03-30T06:32:58.343Z,15.70
2019-03-30T06:35:26.927Z,16.10
2019-03-30T06:37:55.496Z,16.50
2019-03-30T06:42:52.766Z,17.20
2019-03-30T06:45:21.267Z,18.00
2019-03-30T06:47:50.076Z,18.20
2019-03-30T06:52:57.576Z,18.80
2019-03-30T06:57:44.996Z,19.50
2019-03-30T07:00:14.049Z,19.50
2019-03-30T07:02:43.673Z,20.30
2019-03-30T07:07:45.897Z,19.50
2019-03-30T07:10:14.556Z,19.50
2019-03-30T07:12:42.739Z,19.30
2019-03-30T07:17:46.402Z,18.80
2019-03-30T07:20:26.644Z,18.80
2019-03-30T07:22:56.041Z,18.80
2019-03-30T07:27:51.628Z,17.60
2019-03-30T07:30:20.391Z,18.30
2019-03-30T07:32:49.328Z,18.90
2019-03-30T07:35:18.599Z,18.20
2019-03-30T07:37:47.597Z,18.00
2019-03-30T07:40:16.530Z,18.80
2019-03-30T07:42:47.344Z,18.30
2019-03-30T07:45:16.330Z,18.80
2019-03-30T07:47:45.430Z,18.00
2019-03-30T07:50:14.551Z,19.00
2019-03-30T07:52:43.847Z,18.30
2019-03-30T07:57:46.403Z,17.50
2019-03-30T08:02:46.668Z,17.70
2019-03-30T08:10:12.633Z,17.80
2019-03-30T08:15:12.091Z,18.50
2019-03-30T08:17:40.254Z,18.30
2019-03-30T08:22:38.616Z,18.90
2019-03-30T08:25:07.785Z,18.90
2019-03-30T08:30:05.973Z,19.90
2019-03-30T08:35:03.048Z,19.40
2019-03-30T08:37:31.617Z,19.20
2019-03-30T08:40:01.552Z,18.20
2019-03-30T08:42:30.704Z,18.20
2019-03-30T08:44:59.272Z,17.90
2019-03-30T08:49:58.504Z,18.70
2019-03-30T08:52:27.326Z,18.90
2019-03-30T08:54:55.983Z,19.40
2019-03-30T08:57:25.310Z,19.50
2019-03-30T08:59:54.222Z,19.60
2019-03-30T09:02:22.482Z,20.60
2019-03-30T09:04:51.158Z,20.50
2019-03-30T09:09:49.276Z,21.20
2019-03-30T09:12:18.348Z,21.40
2019-03-30T09:14:46.595Z,21.70
2019-03-30T09:17:17.214Z,22.20
2019-03-30T09:19:46.533Z,22.80
2019-03-30T09:22:17.600Z,23.60
2019-03-30T09:24:47.847Z,21.80
2019-03-30T09:29:45.970Z,23.00
2019-03-30T09:32:15.151Z,22.70
2019-03-30T09:34:43.624Z,22.00
2019-03-30T09:39:41.477Z,22.50
2019-03-30T09:44:40.373Z,22.90
2019-03-30T09:47:10.066Z,23.10
2019-03-30T09:49:39.208Z,24.50
2019-03-30T09:54:37.894Z,25.20
2019-03-30T09:57:07.464Z,24.50
2019-03-30T09:59:37.380Z,24.40
2019-03-30T10:02:06.548Z,24.10
2019-03-30T10:24:37.836Z,25.70
2019-03-30T10:26:59.122Z,25.00
2019-03-30T10:36:55.564Z,25.90
2019-03-30T10:39:25.217Z,25.50
2019-03-30T10:41:54.703Z,25.90
2019-03-30T10:44:24.035Z,26.70
2019-03-30T10:49:21.806Z,26.80
2019-03-30T10:51:50.509Z,26.90
2019-03-30T11:16:39.072Z,26.80
2019-03-30T11:24:06.672Z,27.10
2019-03-30T11:29:04.279Z,28.40
2019-03-30T11:34:01.323Z,27.90
2019-03-30T11:36:29.619Z,28.30
2019-03-30T11:41:26.926Z,27.70
2019-03-30T11:48:53.352Z,26.70
2019-03-30T11:51:22.560Z,26.80
2019-03-30T11:53:52.019Z,26.30
2019-03-30T11:56:22.893Z,26.80
2019-03-30T11:58:56.178Z,27.10
2019-03-30T12:01:26.702Z,27.10
2019-03-30T12:04:03.663Z,26.50
2019-03-30T12:06:34.124Z,25.80
2019-03-30T12:09:04.684Z,25.70
2019-03-30T12:11:35.484Z,25.90
2019-03-30T12:14:11.439Z,26.00
2019-03-30T12:16:43.384Z,25.90
2019-03-30T12:19:13.927Z,25.40
2019-03-30T12:21:42.970Z,25.70
2019-03-30T12:24:25.585Z,26.20
2019-03-30T12:26:55.652Z,26.60
2019-03-30T12:29:27.363Z,26.80
2019-03-30T12:31:57.925Z,26.80
2019-03-30T12:34:27.704Z,26.60
2019-03-30T12:36:57.228Z,26.60
2019-03-30T12:39:25.100Z,26.50
2019-03-30T12:41:54.189Z,26.60
2019-03-30T12:44:22.653Z,26.70
2019-03-30T12:46:52.131Z,27.00
2019-03-30T12:49:21.132Z,26.80
2019-03-30T12:51:50.197Z,26.80
2019-03-30T12:54:19.284Z,27.00
2019-03-30T12:59:19.127Z,27.00
2019-03-30T13:01:49.255Z,26.70
2019-03-30T13:04:18.464Z,26.60
2019-03-30T13:09:16.108Z,26.50
2019-03-30T13:11:44.253Z,26.70
2019-03-30T13:14:13.600Z,26.70
2019-03-30T13:16:42.719Z,26.60
2019-03-30T13:19:11.850Z,26.70
2019-03-30T13:21:52.126Z,26.80
2019-03-30T13:24:12.339Z,27.00
2019-03-30T13:26:40.952Z,27.00
2019-03-30T13:29:09.747Z,26.70
2019-03-30T13:31:41.370Z,26.40
2019-03-30T13:34:13.297Z,26.40
2019-03-30T13:36:44.890Z,26.40
2019-03-30T13:39:14.474Z,26.20
2019-03-30T13:41:43.413Z,25.60
2019-03-30T13:44:11.956Z,25.70
2019-03-30T13:49:10.512Z,25.50
2019-03-30T13:51:39.833Z,25.80
2019-03-30T13:54:08.469Z,26.30
2019-03-30T13:56:37.905Z,25.60
2019-03-30T14:04:06.181Z,24.90
2019-03-30T14:06:36.653Z,25.20
2019-03-30T14:11:35.521Z,24.70
2019-03-30T14:14:05.695Z,24.50
2019-03-30T14:16:35.294Z,24.20
2019-03-30T14:19:03.489Z,24.20
2019-03-30T14:21:32.859Z,24.20
2019-03-30T14:24:02.254Z,24.40
2019-03-30T14:26:31.995Z,24.40
2019-03-30T14:29:01.150Z,24.30
2019-03-30T14:31:30.152Z,24.20
2019-03-30T14:34:00.084Z,24.60
2019-03-30T14:36:28.732Z,24.60
2019-03-30T14:38:57.351Z,24.70
2019-03-30T14:51:20.983Z,24.10
2019-03-30T14:53:57.198Z,24.30
2019-03-30T14:56:26.878Z,24.40
2019-03-30T14:59:10.128Z,24.40
2019-03-30T15:01:30.933Z,24.40
2019-03-30T15:03:59.776Z,24.00
2019-03-30T15:11:27.773Z,24.30
2019-03-30T15:13:58.774Z,24.00
2019-03-30T15:16:32.009Z,24.10
2019-03-30T15:19:00.721Z,24.20
2019-03-30T15:21:29.560Z,23.10
2019-03-30T15:23:58.615Z,23.30
2019-03-30T15:39:01.897Z,23.10
2019-03-30T15:43:59.738Z,22.30
2019-03-30T15:53:54.523Z,21.90
2019-03-30T16:04:02.818Z,21.60
2019-03-30T16:09:02.064Z,22.10
2019-03-30T16:11:31.009Z,21.90
2019-03-30T16:16:28.573Z,21.70
2019-03-30T16:26:40.983Z,21.60
2019-03-30T16:29:08.403Z,21.50
2019-03-30T16:31:39.701Z,21.60
2019-03-30T16:34:08.579Z,21.20
2019-03-30T16:41:38.920Z,20.80
2019-03-30T16:49:09.632Z,21.10
2019-03-30T16:59:07.704Z,20.80
2019-03-30T17:11:42.402Z,20.60
2019-03-30T17:19:12.060Z,20.50
2019-03-30T17:26:41.960Z,20.20
2019-03-30T17:29:15.758Z,20.10
2019-03-30T17:36:42.309Z,20.10
2019-03-30T17:39:12.483Z,19.80
2019-03-30T17:41:44.432Z,19.90
2019-03-30T17:46:43.516Z,19.50
2019-03-30T17:51:43.082Z,19.30
2019-03-30T18:01:43.240Z,19.60
2019-03-30T18:36:33.295Z,19.40
2019-03-30T18:39:09.769Z,19.80
2019-03-30T18:49:04.239Z,20.00
2019-03-30T18:51:32.892Z,19.50
2019-03-30T19:01:28.316Z,19.80
2019-03-30T19:03:57.918Z,19.40
2019-03-30T19:28:56.642Z,18.50
2019-03-30T19:31:23.400Z,18.90
2019-03-30T19:51:19.156Z,17.60
2019-03-30T20:13:33.135Z,17.40
2019-03-30T20:33:26.664Z,16.70
2019-03-30T20:43:23.763Z,16.20
2019-03-30T21:00:49.517Z,16.30
2019-03-30T21:08:31.539Z,15.40
2019-03-30T21:15:58.377Z,16.10
2019-03-30T22:13:13.587Z,16.40
2019-03-30T23:13:00.486Z,15.90
2019-03-30T23:25:22.330Z,15.70
